Data for 02/21/2013

Time Sea-Level Adjusted Pressure Absolute Pressure Temperature Relative Humidity Dew Point   
(mb) (inHg) (mb) (inHg) (C) (F) (%) (C) (F)
00:05 1012 29.88 841 24.83 -3.5 25.7 93 -4.5 24
00:10 1012 29.88 841 24.83 -3.5 25.6 93 -4.5 23.9
00:15 1012 29.88 841 24.83 -3.6 25.6 93 -4.5 23.9
00:20 1012 29.88 841 24.83 -3.6 25.6 93 -4.5 23.9
00:25 1012 29.88 841 24.83 -3.6 25.6 93 -4.5 23.9
00:30 1012 29.88 841 24.83 -3.5 25.7 93 -4.5 23.9
00:35 1012 29.88 841 24.83 -3.6 25.6 93 -4.5 23.8
00:40 1012 29.88 841 24.83 -3.6 25.5 93 -4.6 23.8
00:45 1012 29.88 841 24.83 -3.6 25.5 93 -4.5 23.8
00:50 1012 29.88 841 24.83 -3.6 25.5 93 -4.6 23.8
00:55 1012 29.88 841 24.83 -3.6 25.5 93 -4.5 23.8
01:00 1012 29.88 841 24.83 -3.6 25.5 93 -4.6 23.7
01:05 1012 29.88 841 24.83 -3.6 25.5 92 -4.7 23.5
01:10 1012 29.88 841 24.83 -3.6 25.5 92 -4.7 23.5
01:15 1012 29.88 841 24.83 -3.5 25.6 92 -4.7 23.5
01:20 1012 29.88 841 24.83 -3.5 25.7 91 -4.8 23.3
01:25 1012 29.88 841 24.83 -3.5 25.7 90 -4.9 23.2
01:30 1012 29.88 841 24.83 -3.5 25.7 90 -4.8 23.3
01:35 1012 29.88 841 24.83 -3.5 25.6 90 -4.9 23.2
01:40 1012 29.88 841 24.83 -3.6 25.6 91 -4.9 23.2
01:45 1012 29.88 841 24.83 -3.6 25.5 91 -4.9 23.2
01:50 1012 29.88 841 24.83 -3.7 25.4 91 -4.9 23.2
01:55 1012 29.88 841 24.83 -3.7 25.3 92 -4.8 23.3
02:00 1012 29.88 841 24.83 -3.8 25.2 93 -4.8 23.4
02:05 1012 29.88 841 24.83 -3.8 25.2 93 -4.7 23.5
02:10 1012 29.88 841 24.83 -3.8 25.2 94 -4.7 23.6
02:15 1012 29.88 841 24.83 -3.8 25.2 94 -4.6 23.6
02:20 1012 29.88 841 24.83 -3.8 25.2 94 -4.7 23.6
02:25 1012 29.88 841 24.83 -3.8 25.1 93 -4.8 23.4
02:30 1012 29.88 841 24.83 -3.9 24.9 93 -4.9 23.3
02:35 1012 29.88 841 24.83 -4 24.8 93 -4.9 23.1
02:40 1012 29.88 841 24.83 -4.1 24.6 94 -5 22.9
02:45 1012 29.88 841 24.83 -4.2 24.4 94 -5.1 22.8
02:50 1012 29.88 842 24.86 -4.3 24.3 94 -5.1 22.8
02:55 1012 29.88 842 24.86 -4.3 24.3 93 -5.2 22.7
03:00 1012 29.88 842 24.86 -4.4 24 93 -5.3 22.4
03:05 1013 29.91 842 24.86 -4.6 23.8 94 -5.4 22.2
03:10 1013 29.91 842 24.86 -4.6 23.7 94 -5.5 22.1
03:15 1013 29.91 842 24.86 -4.7 23.6 94 -5.6 22
03:20 1013 29.91 842 24.86 -4.7 23.6 94 -5.6 22
03:25 1013 29.91 842 24.86 -4.6 23.7 94 -5.5 22.1
03:30 1013 29.91 842 24.86 -4.7 23.6 94 -5.5 22
03:35 1013 29.91 842 24.86 -4.7 23.5 94 -5.5 22
03:40 1013 29.91 842 24.86 -4.7 23.5 94 -5.6 22
03:45 1013 29.91 842 24.86 -4.7 23.6 93 -5.6 21.8
03:50 1013 29.91 842 24.86 -4.7 23.5 93 -5.8 21.6
03:55 1013 29.91 842 24.86 -4.8 23.3 91 -6.1 21.1
04:00 1013 29.91 842 24.86 -4.8 23.3 90 -6.3 20.7
04:05 1013 29.91 842 24.86 -4.9 23.3 89 -6.4 20.4
04:10 1013 29.91 842 24.86 -4.9 23.2 88 -6.5 20.3
04:15 1013 29.91 842 24.86 -4.9 23.2 88 -6.7 20
04:20 1013 29.91 842 24.86 -4.9 23.3 87 -6.7 19.9
04:25 1013 29.91 842 24.86 -4.8 23.3 87 -6.7 19.9
04:30 1013 29.91 842 24.86 -4.9 23.2 87 -6.8 19.8
04:35 1013 29.91 842 24.86 -4.8 23.3 87 -6.8 19.8
04:40 1013 29.91 842 24.86 -4.8 23.3 86 -6.8 19.7
04:45 1013 29.91 842 24.86 -4.9 23.2 86 -6.8 19.7
04:50 1013 29.91 842 24.86 -4.9 23.1 86 -6.9 19.5
04:55 1013 29.91 842 24.86 -5 23.1 86 -6.9 19.6
05:00 1013 29.91 842 24.86 -5 23.1 86 -7 19.4
05:05 1013 29.91 842 24.86 -5 23 86 -7 19.5
05:10 1013 29.91 842 24.86 -5.1 22.9 86 -7 19.4
05:15 1013 29.91 842 24.86 -5.2 22.7 87 -7 19.3
05:20 1013 29.91 842 24.86 -5.2 22.6 87 -7.1 19.2
05:25 1013 29.91 842 24.86 -5.3 22.5 86 -7.3 18.9
05:30 1013 29.91 842 24.86 -5.3 22.4 86 -7.4 18.7
05:35 1013 29.91 842 24.86 -5.5 22.1 86 -7.5 18.4
05:40 1013 29.91 842 24.86 -5.5 22.1 85 -7.6 18.2
05:45 1013 29.91 842 24.86 -5.6 22 85 -7.8 18
05:50 1013 29.91 842 24.86 -5.5 22 84 -7.8 17.9
05:55 1013 29.91 842 24.86 -5.5 22.2 84 -7.7 18.1
06:00 1013 29.91 842 24.86 -5.4 22.2 83 -7.8 17.9
06:05 1013 29.91 843 24.89 -5.3 22.4 83 -7.7 18.1
06:10 1013 29.91 843 24.89 -5.3 22.5 84 -7.6 18.3
06:15 1013 29.91 843 24.89 -5.3 22.5 84 -7.6 18.4
06:20 1013 29.91 843 24.89 -5.3 22.5 85 -7.5 18.6
06:25 1013 29.91 843 24.89 -5.2 22.6 85 -7.5 18.6
06:30 1014 29.94 843 24.89 -5.5 22.2 86 -7.5 18.6
06:35 1014 29.94 843 24.89 -5.7 21.7 87 -7.6 18.4
06:40 1014 29.94 843 24.89 -5.9 21.4 87 -7.6 18.3
06:45 1014 29.94 843 24.89 -6.1 21.1 87 -7.9 17.7
06:50 1014 29.94 843 24.89 -6.2 20.8 86 -8.3 17.1
06:55 1014 29.94 843 24.89 -6.3 20.6 85 -8.4 16.8
07:00 1014 29.94 843 24.89 -6.3 20.6 84 -8.6 16.5
07:05 1014 29.94 843 24.89 -6.5 20.3 84 -8.8 16.2
07:10 1014 29.94 843 24.89 -6.6 20.1 84 -8.9 16.1
07:15 1014 29.94 843 24.89 -6.8 19.8 84 -9.1 15.7
07:20 1014 29.94 843 24.89 -6.8 19.7 83 -9.2 15.4
07:25 1013 29.91 843 24.89 -6.9 19.6 83 -9.3 15.3
07:30 1013 29.91 843 24.89 -6.8 19.8 82 -9.4 15.2
07:35 1014 29.94 843 24.89 -6.8 19.8 83 -9.2 15.4
07:40 1014 29.94 843 24.89 -6.8 19.8 84 -9.1 15.6
07:45 1013 29.91 843 24.89 -6.9 19.6 84 -9.2 15.4
07:50 1013 29.91 843 24.89 -6.9 19.5 85 -9.1 15.6
07:55 1013 29.91 843 24.89 -6.9 19.5 85 -9.1 15.6
08:00 1013 29.91 843 24.89 -6.9 19.5 84 -9.2 15.5
08:05 1013 29.91 843 24.89 -6.9 19.6 85 -9 15.7
08:10 1013 29.91 843 24.89 -7.2 19.1 87 -9.1 15.7
08:15 1013 29.91 843 24.89 -7.4 18.7 87 -9.2 15.5
08:20 1014 29.94 843 24.89 -7.5 18.6 88 -9.2 15.5
08:25 1014 29.94 843 24.89 -7.7 18.2 89 -9.3 15.3
08:30 1014 29.94 843 24.89 -7.8 18.1 89 -9.2 15.4
08:35 1014 29.94 843 24.89 -7.8 17.9 90 -9.2 15.4
08:40 1014 29.94 843 24.89 -7.8 18.1 89 -9.3 15.2
08:45 1014 29.94 843 24.89 -7.7 18.1 87 -9.5 14.9
08:50 1014 29.94 843 24.89 -7.5 18.5 87 -9.3 15.3
08:55 1014 29.94 843 24.89 -7.4 18.6 87 -9.2 15.4
09:00 1014 29.94 843 24.89 -7.2 19 86 -9.2 15.5
09:05 1014 29.94 843 24.89 -6.9 19.6 84 -9.1 15.5
09:10 1014 29.94 843 24.89 -6.3 20.6 81 -9.1 15.6
09:15 1014 29.94 843 24.89 -5.9 21.3 79 -8.9 15.9
09:20 1014 29.94 843 24.89 -5.8 21.6 77 -9.3 15.3
09:25 1014 29.94 843 24.89 -6.3 20.6 78 -9.5 14.9
09:30 1014 29.94 843 24.89 -6.9 19.6 79 -9.9 14.1
09:35 1014 29.94 843 24.89 -7.1 19.3 78 -10.2 13.6
09:40 1014 29.94 843 24.89 -6.8 19.7 77 -10.2 13.7
09:45 1014 29.94 843 24.89 -6.2 20.8 75 -9.9 14.2
09:50 1014 29.94 843 24.89 -5.2 22.6 72 -9.5 14.9
09:55 1014 29.94 843 24.89 -5.5 22.1 71 -10 14.1
10:00 1014 29.94 843 24.89 -5.5 22.1 71 -10 14
10:05 1014 29.94 844 24.92 -5.4 22.2 70 -10 14
10:10 1014 29.94 844 24.92 -5.5 22.1 70 -10.2 13.7
10:15 1014 29.94 844 24.92 -5.5 22 68 -10.5 13.2
10:20 1015 29.97 844 24.92 -4.8 23.3 67 -10.1 13.9
10:25 1015 29.97 844 24.92 -4.4 24 66 -9.8 14.3
10:30 1015 29.97 844 24.92 -4.5 24 64 -10.2 13.6
10:35 1015 29.97 844 24.92 -4.6 23.8 65 -10.1 13.7
10:40 1015 29.97 844 24.92 -5.2 22.7 66 -10.6 13
10:45 1015 29.97 844 24.92 -5.3 22.5 64 -11 12.3
10:50 1015 29.97 844 24.92 -5.5 22.2 65 -11.1 12.1
10:55 1015 29.97 844 24.92 -5.4 22.3 65 -11 12.2
11:00 1015 29.97 844 24.92 -4.8 23.4 63 -10.7 12.7
11:05 1015 29.97 844 24.92 -4.5 23.9 62 -10.7 12.8
11:10 1015 29.97 844 24.92 -4.6 23.7 61 -11.1 12.1
11:15 1015 29.97 844 24.92 -4.7 23.6 64 -10.6 13
11:20 1015 29.97 844 24.92 -4.6 23.6 61 -11 12.2
11:25 1015 29.97 844 24.92 -5 22.9 63 -11 12.2
11:30 1015 29.97 844 24.92 -4.5 24 62 -10.7 12.8
11:35 1015 29.97 844 24.92 -4.1 24.6 61 -10.5 13.1
11:40 1015 29.97 844 24.92 -4.1 24.6 61 -10.5 13
11:45 1015 29.97 844 24.92 -4.3 24.3 61 -10.8 12.6
11:50 1015 29.97 844 24.92 -3.9 25 59 -10.8 12.6
11:55 1015 29.97 844 24.92 -3.6 25.6 58 -10.7 12.8
12:00 1015 29.97 844 24.92 -2.9 26.8 53 -11.2 11.8
12:05 1015 29.97 844 24.92 -2.4 27.7 54 -10.4 13.4
12:10 1015 29.97 844 24.92 -1.9 28.6 50 -10.9 12.3
12:15 1015 29.97 844 24.92 -1.7 28.9 52 -10.4 13.3
12:20 1015 29.97 844 24.92 -2 28.5 54 -10 13.9
12:25 1015 29.97 844 24.92 -1.8 28.8 53 -10 13.9
12:30 1015 29.97 844 24.92 -1.5 29.4 51 -10.3 13.4
12:35 1015 29.97 844 24.92 -0.9 30.3 50 -10.1 13.9
12:40 1015 29.97 844 24.92 -0.9 30.4 51 -9.7 14.5
12:45 1015 29.97 844 24.92 -0.9 30.3 45 -11.4 11.4
12:50 1015 29.97 844 24.92 -1.5 29.2 48 -11.2 11.8
12:55 1015 29.97 844 24.92 -1.9 28.6 49 -11.3 11.7
13:00 1014 29.94 844 24.92 -1.5 29.3 48 -11.3 11.7
13:05 1014 29.94 844 24.92 -1.5 29.4 47 -11.5 11.3
13:10 1014 29.94 844 24.92 -1.3 29.7 46 -11.5 11.4
13:15 1014 29.94 844 24.92 -1.1 30.1 47 -10.9 12.3
13:20 1014 29.94 843 24.89 -1.5 29.3 48 -11.1 12.1
13:25 1014 29.94 843 24.89 -1.6 29.2 48 -11.1 12
13:30 1014 29.94 843 24.89 -1.4 29.5 49 -10.7 12.8
13:35 1014 29.94 843 24.89 -1.1 30 46 -11.3 11.6
13:40 1014 29.94 843 24.89 -1.2 29.9 44 -11.9 10.7
13:45 1014 29.94 843 24.89 -1.3 29.6 44 -12.2 10
13:50 1014 29.94 843 24.89 -1.2 29.8 45 -11.6 11.1
13:55 1014 29.94 843 24.89 -1.8 28.7 46 -12.1 10.3
14:00 1014 29.94 843 24.89 -2.4 27.6 49 -11.8 10.8
14:05 1014 29.94 843 24.89 -2.2 28.1 47 -12.1 10.2
14:10 1014 29.94 843 24.89 -1.4 29.5 45 -11.9 10.5
14:15 1014 29.94 843 24.89 -0.9 30.3 42 -12.4 9.7
14:20 1014 29.94 843 24.89 -0.3 31.5 41 -12 10.5
14:25 1014 29.94 843 24.89 -0.1 31.9 42 -11.5 11.2
14:30 1014 29.94 843 24.89 -0.4 31.4 45 -11 12.2
14:35 1014 29.94 843 24.89 -0 32 44 -10.9 12.3
14:40 1014 29.94 843 24.89 0.2 32.3 43 -10.8 12.5
14:45 1013 29.91 843 24.89 0.1 32.2 42 -11.3 11.6
14:50 1013 29.91 843 24.89 0.2 32.3 43 -11.2 11.9
14:55 1013 29.91 843 24.89 0.4 32.7 40 -11.6 11
15:00 1013 29.91 843 24.89 0.2 32.4 44 -10.8 12.6
15:05 1013 29.91 843 24.89 0.4 32.8 40 -11.5 11.3
15:10 1013 29.91 843 24.89 0.1 32.2 39 -12.2 10.1
15:15 1013 29.91 843 24.89 -0.2 31.6 41 -11.9 10.6
15:20 1013 29.91 842 24.86 -1.1 30 45 -11.7 11
15:25 1013 29.91 842 24.86 -0.7 30.8 42 -12 10.5
15:30 1013 29.91 842 24.86 -0.3 31.5 44 -11 12.2
15:35 1013 29.91 842 24.86 -1.6 29.1 48 -11.3 11.7
15:40 1013 29.91 842 24.86 -1.2 29.9 43 -12.3 9.9
15:45 1013 29.91 842 24.86 -0.6 30.9 43 -11.8 10.7
15:50 1013 29.91 842 24.86 -0.3 31.4 42 -11.9 10.7
15:55 1013 29.91 842 24.86 -0.6 30.9 42 -12 10.5
16:00 1013 29.91 842 24.86 -0.7 30.7 41 -12.4 9.7
16:05 1013 29.91 842 24.86 -0.5 31 38 -13.2 8.2
16:10 1013 29.91 842 24.86 0.7 33.3 36 -12.8 8.9
16:15 1013 29.91 842 24.86 1.2 34.1 36 -12.4 9.7
16:20 1013 29.91 842 24.86 1.5 34.6 34 -12.8 8.9
16:25 1013 29.91 842 24.86 1.1 34 33 -13.3 8
16:30 1013 29.91 842 24.86 -0.1 31.9 36 -13.5 7.7
16:35 1013 29.91 842 24.86 -0.5 31.2 40 -12.6 9.2
16:40 1013 29.91 842 24.86 -0.5 31.2 36 -13.9 6.9
16:45 1013 29.91 842 24.86 -0.1 31.9 36 -13.4 8
16:50 1013 29.91 842 24.86 0.1 32.1 34 -13.9 6.9
16:55 1012 29.88 842 24.86 0.2 32.3 40 -11.8 10.7
17:00 1013 29.91 842 24.86 -0.7 30.7 44 -11.5 11.2
17:05 1012 29.88 842 24.86 -0.7 30.8 43 -11.7 11
17:10 1012 29.88 842 24.86 -0.4 31.3 42 -11.8 10.8
17:15 1012 29.88 842 24.86 -0.3 31.5 41 -11.9 10.5
17:20 1012 29.88 842 24.86 -0.4 31.3 44 -11.3 11.7
17:25 1012 29.88 842 24.86 -0.8 30.6 44 -11.4 11.4
17:30 1012 29.88 842 24.86 -1.4 29.5 45 -11.7 10.9
17:35 1012 29.88 842 24.86 -1.8 28.8 46 -11.8 10.8
17:40 1012 29.88 842 24.86 -1.6 29.1 46 -11.9 10.6
17:45 1012 29.88 842 24.86 -1.7 28.9 46 -12 10.4
17:50 1012 29.88 842 24.86 -1.6 29.2 46 -11.8 10.7
17:55 1012 29.88 842 24.86 -1.3 29.7 46 -11.6 11.1
18:00 1012 29.88 842 24.86 -1.4 29.4 47 -11.5 11.3
18:05 1012 29.88 842 24.86 -1.7 29 46 -11.9 10.6
18:10 1013 29.91 842 24.86 -2.7 27.2 48 -12.1 10.1
18:15 1013 29.91 842 24.86 -3.3 26.1 50 -12.3 9.8
18:20 1013 29.91 842 24.86 -3.3 26 51 -12.2 10
18:25 1013 29.91 842 24.86 -3.5 25.7 49 -12.7 9.2
18:30 1013 29.91 842 24.86 -3.9 25 51 -12.6 9.4
18:35 1013 29.91 842 24.86 -4 24.8 51 -12.6 9.2
18:40 1013 29.91 842 24.86 -4.1 24.6 54 -12.2 10.1
18:45 1012 29.88 842 24.86 -4 24.8 53 -12.1 10.2
18:50 1013 29.91 842 24.86 -4 24.8 55 -11.8 10.7
18:55 1013 29.91 842 24.86 -4.2 24.4 56 -11.7 10.9
19:00 1013 29.91 842 24.86 -4.3 24.2 56 -11.9 10.6
19:05 1013 29.91 842 24.86 -4.4 24 57 -11.6 11.1
19:10 1013 29.91 842 24.86 -4.5 23.9 56 -12 10.4
19:15 1013 29.91 842 24.86 -4.5 23.8 57 -11.9 10.6
19:20 1013 29.91 842 24.86 -4.7 23.5 59 -11.6 11
19:25 1013 29.91 842 24.86 -4.9 23.1 59 -11.7 10.9
19:30 1013 29.91 842 24.86 -5.1 22.9 60 -11.7 10.9
19:35 1013 29.91 842 24.86 -5.2 22.6 59 -12.1 10.3
19:40 1013 29.91 842 24.86 -5.1 22.7 57 -12.3 9.8
19:45 1013 29.91 842 24.86 -5.1 22.8 57 -12.5 9.6
19:50 1013 29.91 842 24.86 -5.1 22.9 57 -12.4 9.7
19:55 1013 29.91 842 24.86 -5.3 22.5 58 -12.3 9.9
20:00 1013 29.91 842 24.86 -5.6 21.9 61 -12.1 10.3
20:05 1013 29.91 842 24.86 -5.7 21.7 61 -12.1 10.3
20:10 1013 29.91 842 24.86 -5.9 21.3 63 -11.8 10.8
20:15 1013 29.91 842 24.86 -6 21.1 65 -11.6 11.1
20:20 1013 29.91 842 24.86 -6.2 20.8 67 -11.3 11.6
20:25 1013 29.91 842 24.86 -6.3 20.6 68 -11.4 11.5
20:30 1013 29.91 842 24.86 -6.3 20.6 67 -11.5 11.2
20:35 1013 29.91 842 24.86 -6.3 20.7 65 -11.8 10.8
20:40 1013 29.91 842 24.86 -6.2 20.9 62 -12.3 9.9
20:45 1013 29.91 842 24.86 -5.6 22 58 -12.6 9.4
20:50 1013 29.91 842 24.86 -5.1 22.8 54 -12.9 8.7
20:55 1013 29.91 842 24.86 -4.8 23.4 57 -12.1 10.2
21:00 1013 29.91 842 24.86 -5.4 22.2 58 -12.5 9.5
21:05 1013 29.91 842 24.86 -5.5 22.1 58 -12.4 9.6
21:10 1013 29.91 842 24.86 -5.4 22.3 57 -12.6 9.3
21:15 1013 29.91 842 24.86 -5.2 22.6 56 -12.7 9.1
21:20 1013 29.91 842 24.86 -5 22.9 57 -12.4 9.7
21:25 1013 29.91 842 24.86 -5.1 22.9 58 -12.2 10
21:30 1013 29.91 842 24.86 -4.9 23.1 54 -12.8 8.9
21:35 1013 29.91 842 24.86 -4.6 23.7 56 -12 10.4
21:40 1013 29.91 842 24.86 -4.5 23.9 54 -12.4 9.7
21:45 1013 29.91 842 24.86 -4.5 23.9 52 -12.9 8.9
21:50 1013 29.91 842 24.86 -4.5 23.9 52 -13 8.7
21:55 1013 29.91 842 24.86 -4.5 23.9 52 -12.8 8.9
22:00 1013 29.91 842 24.86 -4.4 24 52 -13 8.6
22:05 1013 29.91 842 24.86 -4.4 24 52 -12.8 9
22:10 1013 29.91 842 24.86 -4.4 24.1 53 -12.7 9.1
22:15 1013 29.91 842 24.86 -4.3 24.2 52 -12.7 9.1
22:20 1013 29.91 842 24.86 -4.4 24.1 53 -12.5 9.5
22:25 1013 29.91 842 24.86 -4.4 24 52 -12.8 8.9
22:30 1013 29.91 842 24.86 -4.6 23.7 53 -12.7 9.2
22:35 1013 29.91 842 24.86 -4.7 23.6 54 -12.7 9.2
22:40 1013 29.91 842 24.86 -4.8 23.4 55 -12.6 9.4
22:45 1013 29.91 842 24.86 -5 23 56 -12.5 9.5
22:50 1013 29.91 842 24.86 -5 22.9 56 -12.6 9.4
22:55 1013 29.91 842 24.86 -5.1 22.8 56 -12.6 9.4
23:00 1013 29.91 842 24.86 -5.1 22.9 56 -12.5 9.5
23:05 1013 29.91 842 24.86 -5.1 22.9 56 -12.4 9.6
23:10 1013 29.91 842 24.86 -4.9 23.2 55 -12.6 9.4
23:15 1013 29.91 842 24.86 -4.8 23.3 57 -12 10.4
23:20 1013 29.91 842 24.86 -5.1 22.8 59 -11.8 10.7
23:25 1013 29.91 842 24.86 -5.5 22.1 59 -12.3 9.9
23:30 1013 29.91 842 24.86 -5.6 21.9 60 -12.2 10.1
23:35 1013 29.91 842 24.86 -5.5 22.1 58 -12.4 9.6
23:40 1013 29.91 842 24.86 -5.1 22.8 60 -11.7 10.9
23:45 1013 29.91 842 24.86 -5.2 22.6 57 -12.4 9.7
23:50 1013 29.91 842 24.86 -5.1 22.8 58 -12.2 10.1
23:55 1013 29.91 842 24.86 -4.8 23.4 57 -12.1 10.2
24:00 1013 29.91 842 24.86 -4.5 23.8 55 -12.2 10.1